Time;durP1;ratioP1;P1;durP2;ratioP2;P2;SDS_P1;SDS_P2;PMS_P1;PMS_P2;Temp;Humidity;BMP_temperature;BMP_pressure;BME280_temperature;BME280_humidity;BME280_pressure;Samples;Min_cycle;Max_cycle;Signal;HPM_P1;HPM_P2
2023/08/19 00:00:36;;;;;;;18.97;17.50;;;23.40;99.90;;;;;;4994530;28;20457;-71
2023/08/19 00:03:05;;;;;;;18.53;17.20;;;23.40;99.90;;;;;;4994305;28;20523;-71
2023/08/19 00:05:34;;;;;;;18.33;16.90;;;23.40;99.90;;;;;;4994299;28;20875;-71
2023/08/19 00:08:03;;;;;;;18.47;17.03;;;23.40;99.90;;;;;;5009452;28;20791;-71
2023/08/19 00:10:31;;;;;;;18.37;16.97;;;23.30;99.90;;;;;;4994510;28;20870;-71
2023/08/19 00:12:59;;;;;;;17.07;15.87;;;23.40;99.90;;;;;;4994765;28;20468;-71
2023/08/19 00:15:27;;;;;;;15.77;14.57;;;23.30;99.90;;;;;;4994643;28;20435;-72
2023/08/19 00:17:55;;;;;;;18.40;17.00;;;23.30;99.90;;;;;;4994942;28;20436;-71
2023/08/19 00:20:26;;;;;;;18.60;17.00;;;23.30;99.90;;;;;;4994189;28;20775;-71
2023/08/19 00:22:56;;;;;;;17.70;16.40;;;23.30;99.90;;;;;;4994524;28;20949;-71
2023/08/19 00:25:24;;;;;;;18.00;16.60;;;23.30;99.90;;;;;;4994373;28;20472;-71
2023/08/19 00:27:53;;;;;;;18.40;16.90;;;23.20;99.90;;;;;;4994418;28;20540;-71
2023/08/19 00:30:21;;;;;;;17.10;15.73;;;23.20;99.90;;;;;;4994424;28;20429;-71
2023/08/19 00:32:50;;;;;;;18.10;16.80;;;23.20;99.90;;;;;;4993435;28;20532;-71
2023/08/19 00:35:18;;;;;;;18.00;16.50;;;23.20;99.90;;;;;;4994181;28;20520;-71
2023/08/19 00:37:46;;;;;;;17.63;16.23;;;23.20;99.90;;;;;;4995768;28;20487;-71
2023/08/19 00:40:16;;;;;;;17.27;15.80;;;23.10;99.90;;;;;;4998361;28;20523;-71
2023/08/19 00:42:44;;;;;;;17.40;16.13;;;23.10;99.90;;;;;;4998238;28;21008;-71
2023/08/19 00:45:12;;;;;;;18.97;17.57;;;23.10;99.90;;;;;;4998374;28;20464;-71
2023/08/19 00:47:41;;;;;;;19.00;17.60;;;23.10;99.90;;;;;;4996384;28;20448;-71
2023/08/19 00:50:11;;;;;;;19.00;17.40;;;23.10;99.90;;;;;;4996297;28;20450;-71
2023/08/19 00:52:40;;;;;;;18.27;16.97;;;23.10;99.90;;;;;;4997570;28;20440;-71
2023/08/19 00:55:09;;;;;;;13.57;12.53;;;23.10;99.90;;;;;;4997396;28;20461;-71
2023/08/19 00:57:42;;;;;;;18.87;17.40;;;23.00;99.90;;;;;;4996081;28;20551;-71
2023/08/19 01:00:11;;;;;;;18.23;16.80;;;23.00;99.90;;;;;;4997483;28;20425;-71
2023/08/19 01:02:41;;;;;;;18.07;16.77;;;23.00;99.90;;;;;;4995987;28;20464;-71
2023/08/19 01:05:09;;;;;;;19.17;17.77;;;22.90;99.90;;;;;;4995971;28;20837;-71
2023/08/19 01:07:45;;;;;;;19.67;18.27;;;22.90;99.90;;;;;;5012284;28;20453;-71
2023/08/19 01:10:20;;;;;;;17.97;16.67;;;22.90;99.90;;;;;;4997190;28;20471;-71
2023/08/19 01:12:58;;;;;;;18.57;17.27;;;22.90;99.90;;;;;;4995909;28;20813;-71
2023/08/19 01:15:28;;;;;;;18.43;17.03;;;22.90;99.90;;;;;;4996660;28;20762;-71
2023/08/19 01:17:58;;;;;;;20.07;18.57;;;22.90;99.90;;;;;;4995797;28;20486;-71
2023/08/19 01:20:31;;;;;;;19.47;18.07;;;22.80;99.90;;;;;;4996967;28;20440;-71
2023/08/19 01:23:04;;;;;;;18.73;17.33;;;22.80;99.90;;;;;;4997103;28;20464;-71
2023/08/19 01:25:34;;;;;;;21.07;19.37;;;22.80;99.90;;;;;;4997274;28;20806;-71
2023/08/19 01:28:05;;;;;;;19.87;18.33;;;22.70;99.90;;;;;;4997451;28;20491;-72
2023/08/19 01:30:34;;;;;;;19.17;17.80;;;22.70;99.90;;;;;;4996807;28;20467;-72
2023/08/19 01:33:03;;;;;;;19.57;18.07;;;22.70;99.90;;;;;;4995512;28;20873;-71
2023/08/19 01:35:36;;;;;;;19.37;17.97;;;22.70;99.90;;;;;;4996835;28;20444;-72
2023/08/19 01:38:10;;;;;;;18.70;17.30;;;22.60;99.90;;;;;;4996996;28;20550;-72
2023/08/19 01:40:42;;;;;;;20.80;19.17;;;22.60;99.90;;;;;;5012606;28;20444;-71
2023/08/19 01:43:11;;;;;;;20.13;18.63;;;22.60;99.90;;;;;;4996431;28;20481;-71
2023/08/19 01:45:41;;;;;;;19.37;17.87;;;22.60;99.90;;;;;;4995397;28;20441;-71
2023/08/19 01:48:09;;;;;;;22.87;21.17;;;22.60;99.90;;;;;;4995195;28;20476;-71
2023/08/19 01:50:37;;;;;;;20.77;19.17;;;22.60;99.90;;;;;;4996457;28;20503;-71
2023/08/19 01:53:05;;;;;;;20.93;19.43;;;22.50;99.90;;;;;;4995114;28;20456;-71
2023/08/19 01:55:33;;;;;;;22.10;20.40;;;22.50;99.90;;;;;;4995194;28;20437;-71
2023/08/19 01:58:03;;;;;;;22.03;20.30;;;22.50;99.90;;;;;;4994979;28;20814;-71
2023/08/19 02:00:31;;;;;;;23.13;21.00;;;22.50;99.90;;;;;;4994979;28;20531;-71
2023/08/19 02:02:59;;;;;;;24.57;22.70;;;22.40;99.90;;;;;;4996309;28;20461;-71
2023/08/19 02:05:28;;;;;;;23.07;21.10;;;22.40;99.90;;;;;;4994903;28;20441;-71
2023/08/19 02:07:58;;;;;;;24.43;22.23;;;22.40;99.90;;;;;;4994887;28;20460;-71
2023/08/19 02:10:26;;;;;;;24.77;22.73;;;22.40;99.90;;;;;;4994863;28;20459;-71
2023/08/19 02:12:54;;;;;;;23.00;21.20;;;22.40;99.90;;;;;;4994789;28;20441;-71
2023/08/19 02:15:23;;;;;;;23.03;21.43;;;22.40;99.90;;;;;;4994723;28;20449;-71
2023/08/19 02:17:52;;;;;;;24.53;22.47;;;22.30;99.90;;;;;;5011074;28;20950;-71
2023/08/19 02:20:20;;;;;;;23.80;21.90;;;22.30;99.90;;;;;;4995880;28;20439;-71
2023/08/19 02:22:48;;;;;;;24.40;22.50;;;22.30;99.90;;;;;;4995758;28;20441;-71
2023/08/19 02:25:17;;;;;;;23.13;21.20;;;22.30;99.90;;;;;;5010813;28;20558;-71
2023/08/19 02:27:45;;;;;;;22.70;20.80;;;22.30;99.90;;;;;;4995933;28;20852;-71
2023/08/19 02:30:13;;;;;;;25.90;23.80;;;22.20;99.90;;;;;;4996025;28;20441;-71
2023/08/19 02:32:44;;;;;;;24.40;22.40;;;22.20;99.90;;;;;;4994721;28;20472;-71
2023/08/19 02:35:12;;;;;;;24.93;22.73;;;22.20;99.90;;;;;;4994362;28;20844;-71
2023/08/19 02:37:41;;;;;;;25.80;23.87;;;22.20;99.90;;;;;;4995174;28;20499;-71
2023/08/19 02:40:10;;;;;;;26.27;24.30;;;22.20;99.90;;;;;;4995517;28;20499;-71
2023/08/19 02:42:39;;;;;;;25.73;23.80;;;22.20;99.90;;;;;;4995759;28;20444;-71
2023/08/19 02:45:08;;;;;;;25.07;23.07;;;22.10;99.90;;;;;;4995284;28;21028;-71
2023/08/19 02:47:36;;;;;;;25.93;23.90;;;22.10;99.90;;;;;;4994102;28;20468;-71
2023/08/19 02:50:07;;;;;;;25.03;23.03;;;22.10;99.90;;;;;;4994132;28;20518;-71
2023/08/19 02:52:35;;;;;;;27.40;25.10;;;22.10;99.90;;;;;;4994141;28;20487;-71
2023/08/19 02:55:04;;;;;;;27.20;25.10;;;22.10;99.90;;;;;;4993911;28;20460;-71
2023/08/19 02:57:32;;;;;;;26.23;24.20;;;22.10;99.90;;;;;;4995209;28;20440;-71
2023/08/19 03:00:01;;;;;;;26.63;24.43;;;22.00;99.90;;;;;;4993419;28;20809;-71
2023/08/19 03:02:29;;;;;;;25.60;23.23;;;22.00;99.90;;;;;;4993861;28;20476;-71
2023/08/19 03:04:57;;;;;;;27.03;24.80;;;22.00;99.90;;;;;;4993631;28;20603;-71
2023/08/19 03:07:27;;;;;;;29.63;27.43;;;22.00;99.90;;;;;;5010080;28;20456;-71
2023/08/19 03:09:55;;;;;;;29.03;26.50;;;22.00;99.90;;;;;;5010009;28;20487;-71
2023/08/19 03:12:23;;;;;;;29.17;26.77;;;22.00;99.90;;;;;;4993652;28;20483;-71
2023/08/19 03:14:51;;;;;;;27.03;24.93;;;21.90;99.90;;;;;;4993572;28;20594;-71
2023/08/19 03:17:19;;;;;;;29.40;27.20;;;21.90;99.90;;;;;;4995404;28;20440;-71
2023/08/19 03:19:48;;;;;;;28.40;26.00;;;21.90;99.90;;;;;;4993507;28;20528;-71
2023/08/19 03:22:16;;;;;;;27.40;25.27;;;21.90;99.90;;;;;;4993502;28;20590;-71
2023/08/19 03:24:45;;;;;;;30.63;28.33;;;21.90;99.90;;;;;;4994523;28;20480;-71
2023/08/19 03:27:14;;;;;;;29.77;27.50;;;21.90;99.90;;;;;;4993383;28;20996;-71
2023/08/19 03:29:42;;;;;;;29.07;26.77;;;21.90;99.90;;;;;;4993361;28;20445;-71
2023/08/19 03:32:10;;;;;;;30.50;28.10;;;21.80;99.90;;;;;;4993278;28;20457;-71
2023/08/19 03:34:38;;;;;;;31.70;29.20;;;21.80;99.90;;;;;;4993161;28;20815;-71
2023/08/19 03:37:07;;;;;;;29.50;27.30;;;21.80;99.90;;;;;;4993251;28;20441;-71
2023/08/19 03:39:35;;;;;;;30.00;27.70;;;21.80;99.90;;;;;;4994470;28;20447;-71
2023/08/19 03:42:05;;;;;;;28.93;26.63;;;21.80;99.90;;;;;;4993174;28;20469;-71
2023/08/19 03:44:33;;;;;;;29.80;27.30;;;21.80;99.90;;;;;;4994288;28;20500;-71
2023/08/19 03:47:01;;;;;;;29.83;27.50;;;21.70;99.90;;;;;;4994347;28;20433;-71
2023/08/19 03:49:29;;;;;;;31.27;28.50;;;21.70;99.90;;;;;;4994235;28;20447;-71
2023/08/19 03:51:57;;;;;;;29.37;26.97;;;21.70;99.90;;;;;;4993007;28;20453;-71
2023/08/19 03:54:26;;;;;;;32.23;29.53;;;21.70;99.90;;;;;;4994125;28;20981;-71
2023/08/19 03:56:54;;;;;;;30.00;27.60;;;21.70;99.90;;;;;;4992966;28;20858;-71
2023/08/19 03:59:23;;;;;;;30.53;28.10;;;21.70;99.90;;;;;;4993736;28;20507;-71
2023/08/19 04:01:52;;;;;;;32.10;29.70;;;21.70;99.90;;;;;;4992875;28;20451;-71
2023/08/19 04:04:21;;;;;;;32.47;29.87;;;21.60;99.90;;;;;;4992671;28;20469;-71
2023/08/19 04:06:49;;;;;;;31.10;28.60;;;21.60;99.90;;;;;;4994324;28;20825;-71
2023/08/19 04:09:17;;;;;;;36.40;33.40;;;21.60;99.90;;;;;;4992839;28;20508;-71
2023/08/19 04:11:49;;;;;;;36.20;33.17;;;21.60;99.90;;;;;;4991940;28;20479;-71
2023/08/19 04:14:18;;;;;;;33.67;30.87;;;21.60;99.90;;;;;;4992950;28;20986;-71
2023/08/19 04:16:47;;;;;;;34.50;31.60;;;21.60;99.90;;;;;;4992722;28;20473;-71
2023/08/19 04:19:15;;;;;;;34.33;31.37;;;21.50;99.90;;;;;;4992667;28;20542;-71
2023/08/19 04:21:44;;;;;;;34.73;31.87;;;21.60;99.90;;;;;;5009067;28;20449;-71
2023/08/19 04:24:12;;;;;;;34.23;31.43;;;21.50;99.90;;;;;;4993750;28;20526;-71
2023/08/19 04:26:41;;;;;;;34.43;31.67;;;21.50;99.90;;;;;;4992566;28;20504;-71
2023/08/19 04:29:09;;;;;;;32.17;29.33;;;21.50;99.90;;;;;;4992582;28;20476;-71
2023/08/19 04:31:37;;;;;;;32.87;30.17;;;21.50;99.90;;;;;;5008890;28;20514;-71
2023/08/19 04:34:07;;;;;;;32.90;30.33;;;21.50;99.90;;;;;;4992502;28;21035;-71
2023/08/19 04:36:35;;;;;;;34.80;32.00;;;21.50;99.90;;;;;;4992478;28;20473;-71
2023/08/19 04:39:07;;;;;;;35.30;32.40;;;21.50;99.90;;;;;;4993826;28;20536;-71
2023/08/19 04:41:35;;;;;;;36.90;33.90;;;21.50;99.90;;;;;;4993583;28;20443;-71
2023/08/19 04:44:05;;;;;;;38.40;35.13;;;21.50;99.90;;;;;;5009116;28;20555;-71
2023/08/19 04:46:33;;;;;;;36.27;33.23;;;21.50;99.90;;;;;;5008791;28;20532;-71
2023/08/19 04:49:03;;;;;;;34.17;31.43;;;21.50;99.90;;;;;;4992318;28;20460;-71
2023/08/19 04:51:33;;;;;;;33.50;30.70;;;21.50;99.90;;;;;;5008724;28;20452;-71
2023/08/19 04:54:03;;;;;;;34.97;32.10;;;21.50;99.90;;;;;;4993518;28;20457;-71
2023/08/19 04:56:31;;;;;;;35.63;32.60;;;21.50;99.90;;;;;;4992267;28;20987;-71
2023/08/19 04:59:00;;;;;;;35.30;32.20;;;21.50;99.90;;;;;;4992342;28;20444;-71
2023/08/19 05:01:29;;;;;;;35.80;33.03;;;21.50;99.90;;;;;;4992902;28;20492;-71
2023/08/19 05:03:58;;;;;;;35.00;32.10;;;21.50;99.90;;;;;;4992198;28;20472;-71
2023/08/19 05:06:26;;;;;;;35.27;32.57;;;21.50;99.90;;;;;;4992203;28;20448;-71
2023/08/19 05:08:56;;;;;;;36.47;33.53;;;21.50;99.90;;;;;;4992121;28;20445;-71
2023/08/19 05:11:24;;;;;;;36.03;33.10;;;21.50;99.90;;;;;;4992177;28;20449;-71
2023/08/19 05:13:55;;;;;;;33.87;31.17;;;21.60;99.90;;;;;;4992192;28;20476;-71
2023/08/19 05:16:23;;;;;;;37.27;34.17;;;21.50;99.90;;;;;;4992221;28;20519;-71
2023/08/19 05:19:05;;;;;;;35.23;32.33;;;21.60;99.90;;;;;;5008502;28;20499;-71
2023/08/19 05:21:33;;;;;;;35.40;32.50;;;21.60;99.90;;;;;;4992193;28;20437;-71
2023/08/19 05:24:03;;;;;;;34.20;31.40;;;21.60;99.90;;;;;;4996046;28;20966;-71
2023/08/19 05:26:32;;;;;;;36.07;33.20;;;21.60;99.90;;;;;;4995593;28;20464;-71
2023/08/19 05:29:00;;;;;;;35.47;32.67;;;21.60;99.90;;;;;;4997006;28;20518;-71
2023/08/19 05:31:28;;;;;;;35.30;32.47;;;21.60;99.90;;;;;;4996807;28;20444;-71
2023/08/19 05:33:56;;;;;;;35.77;32.63;;;21.60;99.90;;;;;;4996645;28;20480;-71
2023/08/19 05:36:24;;;;;;;35.50;32.70;;;21.60;99.90;;;;;;4995425;28;20551;-71
2023/08/19 05:38:52;;;;;;;36.37;33.27;;;21.70;99.90;;;;;;4996787;28;20916;-71
2023/08/19 05:41:21;;;;;;;37.40;34.50;;;21.70;99.90;;;;;;4996145;28;20464;-71
2023/08/19 05:43:50;;;;;;;36.07;32.90;;;21.70;99.90;;;;;;4996558;28;20543;-70
2023/08/19 05:46:18;;;;;;;36.50;33.57;;;21.70;99.90;;;;;;4996759;28;20477;-71
2023/08/19 05:48:46;;;;;;;35.77;32.67;;;21.80;99.90;;;;;;4995234;28;20447;-71
2023/08/19 05:51:14;;;;;;;35.20;32.50;;;21.80;99.90;;;;;;4996693;28;20441;-70
2023/08/19 05:53:42;;;;;;;36.07;32.97;;;21.80;99.90;;;;;;4996328;28;20460;-71
2023/08/19 05:56:10;;;;;;;37.70;34.63;;;21.80;99.90;;;;;;4996689;28;21008;-71
2023/08/19 05:58:39;;;;;;;37.10;33.90;;;21.90;99.90;;;;;;4996277;28;20429;-71
2023/08/19 06:01:08;;;;;;;35.90;33.07;;;21.90;99.90;;;;;;4996228;28;20441;-71
2023/08/19 06:03:37;;;;;;;34.60;31.80;;;21.90;99.90;;;;;;4996336;28;20457;-71
2023/08/19 06:06:06;;;;;;;34.50;31.60;;;22.00;99.90;;;;;;4996086;28;20477;-71
2023/08/19 06:08:34;;;;;;;37.40;34.20;;;22.10;99.90;;;;;;4996142;28;20437;-71
2023/08/19 06:11:05;;;;;;;34.40;31.70;;;22.20;99.90;;;;;;4994880;28;20452;-71
2023/08/19 06:13:33;;;;;;;33.97;31.17;;;22.30;99.90;;;;;;4996027;28;20467;-71
2023/08/19 06:16:04;;;;;;;33.37;30.67;;;22.40;99.90;;;;;;4994729;28;20444;-71
2023/08/19 06:18:32;;;;;;;32.70;29.97;;;22.50;99.90;;;;;;4996533;28;20520;-71
2023/08/19 06:21:01;;;;;;;35.03;32.00;;;22.60;99.90;;;;;;4995908;28;20437;-71
2023/08/19 06:23:29;;;;;;;33.07;30.47;;;22.70;99.90;;;;;;4995881;28;20568;-71
2023/08/19 06:25:57;;;;;;;33.37;30.67;;;22.80;99.90;;;;;;4996113;28;20824;-71
2023/08/19 06:28:25;;;;;;;34.90;31.97;;;23.00;99.90;;;;;;4996058;28;20452;-71
2023/08/19 06:30:54;;;;;;;31.87;29.33;;;23.10;99.90;;;;;;4996197;28;20443;-71
2023/08/19 06:33:24;;;;;;;33.20;30.60;;;23.20;99.90;;;;;;4995561;28;20560;-71
2023/08/19 06:35:56;;;;;;;31.80;29.20;;;23.30;99.90;;;;;;5009778;28;20445;-71
2023/08/19 06:38:28;;;;;;;33.00;30.10;;;23.50;99.90;;;;;;4995824;28;20436;-71
2023/08/19 06:40:59;;;;;;;31.63;29.03;;;23.60;99.90;;;;;;4995965;28;20790;-71
2023/08/19 06:43:28;;;;;;;29.67;27.10;;;23.80;99.90;;;;;;5011207;28;20472;-71
2023/08/19 06:45:57;;;;;;;30.37;28.13;;;23.90;99.90;;;;;;4996428;28;20469;-71
2023/08/19 06:48:28;;;;;;;30.80;28.50;;;24.10;99.90;;;;;;4995765;28;20445;-71
2023/08/19 06:50:57;;;;;;;30.43;28.03;;;24.20;99.90;;;;;;4996214;28;20452;-71
2023/08/19 06:53:25;;;;;;;29.70;27.37;;;24.30;99.90;;;;;;5010823;28;20914;-71
2023/08/19 06:56:04;;;;;;;30.30;27.87;;;24.40;99.90;;;;;;4995614;28;20429;-71
2023/08/19 06:58:38;;;;;;;27.33;25.33;;;24.50;99.90;;;;;;4995826;28;20433;-71
2023/08/19 07:01:14;;;;;;;27.83;25.60;;;24.70;99.90;;;;;;4996359;28;20945;-70
2023/08/19 07:03:45;;;;;;;28.53;26.37;;;24.80;99.90;;;;;;4995822;28;20510;-70
2023/08/19 07:06:18;;;;;;;28.80;26.60;;;24.90;99.90;;;;;;4995671;28;20507;-71
2023/08/19 07:08:46;;;;;;;28.10;25.80;;;25.10;99.90;;;;;;4995916;28;20517;-70
2023/08/19 07:11:15;;;;;;;29.73;27.40;;;25.10;99.90;;;;;;4994553;28;20491;-70
2023/08/19 07:13:44;;;;;;;28.07;25.40;;;25.20;99.90;;;;;;5010432;28;20476;-71
2023/08/19 07:16:15;;;;;;;26.47;24.37;;;25.20;99.90;;;;;;4995699;28;20444;-74
2023/08/19 07:18:49;;;;;;;27.43;25.13;;;25.30;99.90;;;;;;4995021;28;20425;-72
2023/08/19 07:21:19;;;;;;;25.93;23.83;;;25.30;99.90;;;;;;4994010;28;20448;-72
2023/08/19 07:23:48;;;;;;;30.40;27.80;;;25.40;99.90;;;;;;4994906;28;20499;-72
2023/08/19 07:26:19;;;;;;;28.80;26.50;;;25.40;99.90;;;;;;4995392;28;20974;-76
2023/08/19 07:28:47;;;;;;;29.73;27.43;;;25.40;99.90;;;;;;4995056;28;20480;-76
2023/08/19 07:31:17;;;;;;;28.63;26.50;;;25.30;99.90;;;;;;4993536;28;20890;-77
2023/08/19 07:33:46;;;;;;;34.53;31.43;;;25.40;99.90;;;;;;5010459;28;20480;-77
2023/08/19 07:36:14;;;;;;;33.70;30.80;;;25.40;99.90;;;;;;5009849;28;20437;-75
2023/08/19 07:38:43;;;;;;;26.87;24.90;;;25.40;99.90;;;;;;4995526;28;20471;-75
2023/08/19 07:41:11;;;;;;;28.93;26.80;;;25.50;99.90;;;;;;4993769;28;20536;-75
2023/08/19 07:43:39;;;;;;;26.83;24.73;;;25.60;99.90;;;;;;4995016;28;20480;-76
2023/08/19 07:46:07;;;;;;;29.40;27.20;;;25.70;99.90;;;;;;4994976;28;21001;-74
2023/08/19 07:48:35;;;;;;;25.97;23.87;;;25.80;99.90;;;;;;4993332;28;20491;-75
2023/08/19 07:51:05;;;;;;;28.80;26.60;;;25.90;99.90;;;;;;4994873;28;20946;-76
2023/08/19 07:53:33;;;;;;;28.97;26.67;;;26.10;99.90;;;;;;4995880;28;20479;-76
2023/08/19 07:56:01;;;;;;;27.47;25.17;;;26.10;99.90;;;;;;4993367;28;20524;-73
2023/08/19 07:58:29;;;;;;;25.40;23.50;;;26.20;99.90;;;;;;4994985;28;20445;-73
2023/08/19 08:00:58;;;;;;;26.23;23.90;;;26.30;99.90;;;;;;4995140;28;20453;-72
2023/08/19 08:03:26;;;;;;;23.10;21.47;;;26.40;99.90;;;;;;4993317;28;20968;-74
2023/08/19 08:05:54;;;;;;;26.00;24.00;;;26.40;99.90;;;;;;4994089;28;20475;-74
2023/08/19 08:08:24;;;;;;;24.30;22.60;;;26.40;99.90;;;;;;4994875;28;20436;-73
2023/08/19 08:10:53;;;;;;;22.90;21.20;;;26.40;99.90;;;;;;4994890;28;20449;-73
2023/08/19 08:13:21;;;;;;;23.13;21.37;;;26.40;99.90;;;;;;4994550;28;20456;-72
2023/08/19 08:15:49;;;;;;;23.53;21.80;;;26.50;99.90;;;;;;4993209;28;20539;-74
2023/08/19 08:18:17;;;;;;;23.73;21.90;;;26.60;99.90;;;;;;4994312;28;20441;-71
2023/08/19 08:20:45;;;;;;;25.30;23.40;;;26.60;99.90;;;;;;4994378;28;20468;-72
2023/08/19 08:23:14;;;;;;;26.60;24.47;;;26.70;99.90;;;;;;4993020;28;20449;-71
2023/08/19 08:25:43;;;;;;;24.27;22.57;;;26.80;99.90;;;;;;4994007;28;20814;-71
2023/08/19 08:28:11;;;;;;;23.77;21.97;;;26.90;99.90;;;;;;4993838;28;20992;-72
2023/08/19 08:30:39;;;;;;;23.17;21.50;;;26.90;99.90;;;;;;4994127;28;20938;-71
2023/08/19 08:33:08;;;;;;;23.97;22.27;;;27.00;99.90;;;;;;4994597;28;20475;-71
2023/08/19 08:35:37;;;;;;;22.90;21.27;;;27.10;99.90;;;;;;4992991;28;20553;-71
2023/08/19 08:38:05;;;;;;;22.50;20.80;;;27.10;99.90;;;;;;4994229;28;20922;-71
2023/08/19 08:40:33;;;;;;;21.50;20.00;;;27.20;99.90;;;;;;4992755;28;20468;-71
2023/08/19 08:43:04;;;;;;;21.97;20.47;;;27.40;99.90;;;;;;4994287;28;20445;-71
2023/08/19 08:45:33;;;;;;;22.70;20.97;;;27.40;99.90;;;;;;4993955;28;20432;-72
2023/08/19 08:48:02;;;;;;;24.87;22.97;;;27.50;99.90;;;;;;4993876;28;20475;-72
2023/08/19 08:50:31;;;;;;;21.00;19.40;;;27.50;99.90;;;;;;4994382;28;20433;-73
2023/08/19 08:52:59;;;;;;;21.37;19.87;;;27.60;99.90;;;;;;4993993;28;20447;-73
2023/08/19 08:55:27;;;;;;;21.00;19.33;;;27.60;99.90;;;;;;4994184;28;20445;-72
2023/08/19 08:57:56;;;;;;;22.20;20.40;;;27.60;99.90;;;;;;4994967;28;20536;-72
2023/08/19 09:00:25;;;;;;;21.97;20.37;;;27.60;99.90;;;;;;4997718;28;21041;-72
2023/08/19 09:02:55;;;;;;;22.00;20.30;;;27.60;99.90;;;;;;4997857;28;20518;-72
2023/08/19 09:05:26;;;;;;;22.10;20.30;;;27.60;99.90;;;;;;4998053;28;20429;-72
2023/08/19 09:07:56;;;;;;;20.67;19.07;;;27.60;99.90;;;;;;4997448;28;20507;-72
2023/08/19 09:10:26;;;;;;;21.40;19.80;;;27.60;99.90;;;;;;4997778;28;20447;-72
2023/08/19 09:12:58;;;;;;;22.63;20.80;;;27.60;99.90;;;;;;4997496;28;20476;-72
2023/08/19 09:15:30;;;;;;;21.90;20.30;;;27.60;99.90;;;;;;4996389;28;20480;-72
2023/08/19 09:17:58;;;;;;;20.20;18.73;;;27.60;99.90;;;;;;4997432;28;20421;-72
2023/08/19 09:20:28;;;;;;;21.40;19.90;;;27.70;99.90;;;;;;4997136;28;20942;-72
2023/08/19 09:23:05;;;;;;;22.10;20.40;;;27.70;99.90;;;;;;4996466;28;20441;-73
2023/08/19 09:25:37;;;;;;;19.80;18.30;;;27.80;99.90;;;;;;4998158;28;20424;-72
2023/08/19 09:28:06;;;;;;;20.00;18.50;;;27.80;99.90;;;;;;4996618;28;20472;-72
2023/08/19 09:30:36;;;;;;;20.73;19.23;;;27.90;99.90;;;;;;4997915;28;20487;-72
2023/08/19 09:33:05;;;;;;;21.63;20.10;;;28.00;99.90;;;;;;5013012;28;20460;-72
2023/08/19 09:35:38;;;;;;;21.57;20.00;;;28.00;99.90;;;;;;5012781;28;20440;-73
2023/08/19 09:38:26;;;;;;;22.40;20.67;;;28.00;99.90;;;;;;4998250;28;20417;-73
2023/08/19 09:40:59;;;;;;;20.83;19.07;;;28.00;99.90;;;;;;4997722;28;20960;-72
2023/08/19 09:43:27;;;;;;;18.97;17.47;;;28.10;99.90;;;;;;4997623;28;20515;-73
2023/08/19 09:46:01;;;;;;;22.40;20.60;;;28.10;99.90;;;;;;4997886;28;20441;-72
2023/08/19 09:48:29;;;;;;;22.77;21.00;;;28.10;99.90;;;;;;4997641;28;21031;-72
2023/08/19 09:50:57;;;;;;;24.37;22.57;;;28.20;99.90;;;;;;4997599;28;20802;-72
2023/08/19 09:53:28;;;;;;;20.17;18.60;;;28.20;99.90;;;;;;4996291;28;20477;-72
2023/08/19 09:55:57;;;;;;;19.47;17.87;;;28.20;99.90;;;;;;4997567;28;21057;-72
2023/08/19 09:58:26;;;;;;;19.83;18.33;;;28.20;99.90;;;;;;4997890;28;20837;-72
2023/08/19 10:00:54;;;;;;;19.30;17.90;;;28.30;99.90;;;;;;4997448;28;20499;-73
2023/08/19 10:03:24;;;;;;;19.50;18.10;;;28.30;99.90;;;;;;4997081;28;20660;-73
2023/08/19 10:05:54;;;;;;;20.47;18.97;;;28.30;99.90;;;;;;4997628;28;20863;-72
2023/08/19 10:08:27;;;;;;;19.40;18.00;;;28.40;99.90;;;;;;4997156;28;20504;-73
2023/08/19 10:10:55;;;;;;;20.67;19.00;;;28.40;99.90;;;;;;4996170;28;20423;-73
2023/08/19 10:13:25;;;;;;;18.93;17.60;;;28.50;99.90;;;;;;4995918;28;20986;-72
2023/08/19 10:15:57;;;;;;;19.23;17.83;;;28.50;99.90;;;;;;4995765;28;21008;-72
2023/08/19 10:18:33;;;;;;;19.03;17.70;;;28.60;99.90;;;;;;4997154;28;20429;-73
2023/08/19 10:21:05;;;;;;;18.30;16.77;;;28.60;99.90;;;;;;4996971;28;20877;-72
2023/08/19 10:23:35;;;;;;;18.57;17.27;;;28.70;99.90;;;;;;4996714;28;20468;-73
2023/08/19 10:26:03;;;;;;;19.20;17.90;;;28.70;99.90;;;;;;4996990;28;20448;-73
2023/08/19 10:28:33;;;;;;;19.17;17.67;;;28.80;99.90;;;;;;4996761;28;20468;-73
2023/08/19 10:31:08;;;;;;;18.60;17.17;;;28.90;99.90;;;;;;5011930;28;20449;-72
2023/08/19 10:33:43;;;;;;;18.87;17.50;;;29.00;99.90;;;;;;4996981;28;20456;-72
2023/08/19 10:36:15;;;;;;;20.53;18.87;;;29.00;99.90;;;;;;4996788;28;20487;-72
2023/08/19 10:38:45;;;;;;;19.20;17.90;;;29.00;99.90;;;;;;4995490;28;20470;-72
2023/08/19 10:41:33;;;;;;;21.90;20.00;;;29.00;99.90;;;;;;4996590;28;20441;-73
2023/08/19 10:44:02;;;;;;;19.83;18.23;;;29.00;99.90;;;;;;4996842;28;20461;-73
2023/08/19 10:46:35;;;;;;;19.53;18.03;;;29.00;99.90;;;;;;4996245;28;20433;-72
2023/08/19 10:49:06;;;;;;;19.30;17.83;;;29.00;99.90;;;;;;4995468;28;20467;-72
2023/08/19 10:51:53;;;;;;;17.30;15.83;;;29.10;99.90;;;;;;4995878;28;20516;-73
2023/08/19 10:54:30;;;;;;;17.73;16.43;;;29.00;99.90;;;;;;4994110;28;20840;-73
2023/08/19 10:57:11;;;;;;;18.47;17.00;;;29.00;99.90;;;;;;4995388;28;20452;-73
2023/08/19 10:59:41;;;;;;;18.43;16.93;;;29.10;99.90;;;;;;4995505;28;20515;-73
2023/08/19 11:02:10;;;;;;;18.80;17.40;;;29.10;99.90;;;;;;4995442;28;20922;-73
2023/08/19 11:04:44;;;;;;;18.40;16.80;;;29.00;99.90;;;;;;5010172;28;20523;-73
2023/08/19 11:07:13;;;;;;;18.13;16.77;;;29.00;99.90;;;;;;4995674;28;20451;-73
2023/08/19 11:09:42;;;;;;;21.80;20.10;;;29.00;99.90;;;;;;5010114;28;20452;-73
2023/08/19 11:12:11;;;;;;;18.93;17.43;;;29.10;99.90;;;;;;4994435;28;21013;-73
2023/08/19 11:14:39;;;;;;;17.40;16.20;;;29.10;99.90;;;;;;4995719;28;20500;-73
2023/08/19 11:17:07;;;;;;;18.47;16.90;;;29.10;99.90;;;;;;4995005;28;20449;-73
2023/08/19 11:19:36;;;;;;;14.93;13.83;;;29.10;99.90;;;;;;4994874;28;20439;-72
2023/08/19 11:22:05;;;;;;;17.73;16.20;;;29.00;99.90;;;;;;4995008;28;20440;-73
2023/08/19 11:24:36;;;;;;;15.83;14.63;;;29.00;99.90;;;;;;4994765;28;20495;-73
2023/08/19 11:27:04;;;;;;;16.03;14.83;;;29.00;99.90;;;;;;4994805;28;20849;-72
2023/08/19 11:29:32;;;;;;;18.53;17.03;;;29.00;99.90;;;;;;4994587;28;21048;-73
2023/08/19 11:32:01;;;;;;;20.53;18.83;;;29.00;99.90;;;;;;4994631;28;20531;-73
2023/08/19 11:34:30;;;;;;;19.37;17.57;;;28.90;99.90;;;;;;4994535;28;20485;-73
2023/08/19 11:36:58;;;;;;;16.80;15.50;;;28.90;99.90;;;;;;4994566;28;20443;-73
2023/08/19 11:39:32;;;;;;;16.30;14.77;;;28.90;99.90;;;;;;4994856;28;20465;-73
2023/08/19 11:42:02;;;;;;;16.33;14.90;;;28.90;99.90;;;;;;4995200;28;20471;-73
2023/08/19 11:44:31;;;;;;;17.23;15.87;;;28.90;99.90;;;;;;4994422;28;20469;-73
2023/08/19 11:46:59;;;;;;;16.57;15.37;;;28.90;99.90;;;;;;4994389;28;20763;-73
2023/08/19 11:49:30;;;;;;;18.27;16.73;;;28.80;99.90;;;;;;4994655;28;20468;-72
2023/08/19 11:51:59;;;;;;;16.50;15.03;;;28.80;99.90;;;;;;4994356;28;20468;-73
2023/08/19 11:54:27;;;;;;;16.13;14.73;;;28.70;99.90;;;;;;4994254;28;20464;-73
2023/08/19 11:57:01;;;;;;;15.70;14.13;;;28.70;99.90;;;;;;4994422;28;20448;-73
2023/08/19 11:59:30;;;;;;;15.47;14.00;;;28.70;99.90;;;;;;4994509;28;20818;-73
2023/08/19 12:01:58;;;;;;;15.83;14.23;;;28.70;99.90;;;;;;4994176;28;20436;-72
2023/08/19 12:04:27;;;;;;;14.77;13.67;;;28.70;99.90;;;;;;5009532;28;20998;-74
2023/08/19 12:06:55;;;;;;;14.93;13.83;;;28.70;99.90;;;;;;4995138;28;20515;-74
2023/08/19 12:09:32;;;;;;;15.53;14.23;;;28.60;99.90;;;;;;4994718;28;20548;-74
2023/08/19 12:12:09;;;;;;;15.97;14.77;;;28.60;99.90;;;;;;4994157;28;20512;-74
2023/08/19 12:14:38;;;;;;;15.73;14.53;;;28.60;99.90;;;;;;4994480;28;20467;-75
2023/08/19 12:17:07;;;;;;;14.93;13.70;;;28.60;99.90;;;;;;4994213;28;20950;-74
2023/08/19 12:19:36;;;;;;;13.90;12.63;;;28.60;99.90;;;;;;4993977;28;20464;-74
2023/08/19 12:22:04;;;;;;;20.60;18.90;;;28.50;99.90;;;;;;4994084;28;20495;-74
2023/08/19 12:24:33;;;;;;;26.17;23.93;;;28.60;99.90;;;;;;4993973;28;20460;-75
2023/08/19 12:27:01;;;;;;;19.20;17.63;;;28.50;99.90;;;;;;4994247;28;20471;-73
2023/08/19 12:29:30;;;;;;;15.80;14.70;;;28.50;99.90;;;;;;4993730;28;20567;-72
2023/08/19 12:31:59;;;;;;;16.23;14.90;;;28.50;99.90;;;;;;4993928;28;20437;-73
2023/08/19 12:34:27;;;;;;;17.80;16.50;;;28.40;99.90;;;;;;5012364;28;20472;-73
2023/08/19 12:36:55;;;;;;;18.00;16.60;;;28.50;99.90;;;;;;4996622;28;20794;-73
2023/08/19 12:39:26;;;;;;;16.90;15.63;;;28.40;99.90;;;;;;4997911;28;20921;-73